sensor_id;sensor_type;location;lat;lon;timestamp;P1;durP1;ratioP1;P2;durP2;ratioP2
67828;SDS011;54626;45.436;10.942;2023-03-23T00:01:51;4.15;;;2.53;;
67828;SDS011;54626;45.436;10.942;2023-03-23T00:04:17;4.60;;;2.80;;
67828;SDS011;54626;45.436;10.942;2023-03-23T00:06:43;6.65;;;2.17;;
67828;SDS011;54626;45.436;10.942;2023-03-23T00:09:10;2.58;;;2.38;;
67828;SDS011;54626;45.436;10.942;2023-03-23T00:11:37;1.90;;;1.63;;
67828;SDS011;54626;45.436;10.942;2023-03-23T00:14:04;4.00;;;1.85;;
67828;SDS011;54626;45.436;10.942;2023-03-23T00:16:30;4.25;;;2.25;;
67828;SDS011;54626;45.436;10.942;2023-03-23T00:19:01;7.78;;;2.83;;
67828;SDS011;54626;45.436;10.942;2023-03-23T00:21:29;3.00;;;2.08;;
67828;SDS011;54626;45.436;10.942;2023-03-23T00:24:06;3.00;;;2.80;;
67828;SDS011;54626;45.436;10.942;2023-03-23T00:26:32;11.02;;;3.97;;
67828;SDS011;54626;45.436;10.942;2023-03-23T00:31:25;3.65;;;1.88;;
67828;SDS011;54626;45.436;10.942;2023-03-23T00:33:56;1.95;;;1.65;;
67828;SDS011;54626;45.436;10.942;2023-03-23T00:36:23;14.00;;;4.25;;
67828;SDS011;54626;45.436;10.942;2023-03-23T00:38:49;5.43;;;2.92;;
67828;SDS011;54626;45.436;10.942;2023-03-23T00:41:14;1.63;;;1.52;;
67828;SDS011;54626;45.436;10.942;2023-03-23T00:43:40;13.38;;;5.13;;
67828;SDS011;54626;45.436;10.942;2023-03-23T00:46:05;4.38;;;3.35;;
67828;SDS011;54626;45.436;10.942;2023-03-23T00:48:35;6.10;;;2.10;;
67828;SDS011;54626;45.436;10.942;2023-03-23T00:51:06;3.58;;;2.75;;
67828;SDS011;54626;45.436;10.942;2023-03-23T00:53:37;6.75;;;3.08;;
67828;SDS011;54626;45.436;10.942;2023-03-23T00:56:04;3.80;;;2.28;;
67828;SDS011;54626;45.436;10.942;2023-03-23T00:58:29;7.53;;;3.70;;
67828;SDS011;54626;45.436;10.942;2023-03-23T01:00:55;2.83;;;2.42;;
67828;SDS011;54626;45.436;10.942;2023-03-23T01:03:21;5.18;;;4.05;;
67828;SDS011;54626;45.436;10.942;2023-03-23T01:05:51;6.22;;;3.25;;
67828;SDS011;54626;45.436;10.942;2023-03-23T01:08:17;8.93;;;2.25;;
67828;SDS011;54626;45.436;10.942;2023-03-23T01:10:44;2.05;;;1.73;;
67828;SDS011;54626;45.436;10.942;2023-03-23T01:13:10;2.40;;;2.10;;
67828;SDS011;54626;45.436;10.942;2023-03-23T01:18:02;3.30;;;2.43;;
67828;SDS011;54626;45.436;10.942;2023-03-23T01:20:27;2.00;;;0.82;;
67828;SDS011;54626;45.436;10.942;2023-03-23T01:22:56;2.50;;;2.08;;
67828;SDS011;54626;45.436;10.942;2023-03-23T01:25:25;7.60;;;2.63;;
67828;SDS011;54626;45.436;10.942;2023-03-23T01:27:52;5.25;;;3.72;;
67828;SDS011;54626;45.436;10.942;2023-03-23T01:30:18;11.70;;;2.03;;
67828;SDS011;54626;45.436;10.942;2023-03-23T01:32:43;2.13;;;1.88;;
67828;SDS011;54626;45.436;10.942;2023-03-23T01:35:09;5.85;;;3.35;;
67828;SDS011;54626;45.436;10.942;2023-03-23T01:37:34;3.45;;;2.90;;
67828;SDS011;54626;45.436;10.942;2023-03-23T01:42:32;2.80;;;1.63;;
67828;SDS011;54626;45.436;10.942;2023-03-23T01:47:44;5.53;;;2.38;;
67828;SDS011;54626;45.436;10.942;2023-03-23T01:50:10;2.65;;;1.65;;
67828;SDS011;54626;45.436;10.942;2023-03-23T01:52:36;3.95;;;3.08;;
67828;SDS011;54626;45.436;10.942;2023-03-23T01:55:01;16.55;;;3.05;;
67828;SDS011;54626;45.436;10.942;2023-03-23T01:57:28;2.53;;;1.88;;
67828;SDS011;54626;45.436;10.942;2023-03-23T01:59:55;5.45;;;2.78;;
67828;SDS011;54626;45.436;10.942;2023-03-23T02:02:24;4.93;;;2.42;;
67828;SDS011;54626;45.436;10.942;2023-03-23T02:04:50;3.17;;;2.78;;
67828;SDS011;54626;45.436;10.942;2023-03-23T02:07:19;4.00;;;3.42;;
67828;SDS011;54626;45.436;10.942;2023-03-23T02:09:45;10.07;;;4.38;;
67828;SDS011;54626;45.436;10.942;2023-03-23T02:12:11;3.00;;;2.58;;
67828;SDS011;54626;45.436;10.942;2023-03-23T02:14:37;2.00;;;1.48;;
67828;SDS011;54626;45.436;10.942;2023-03-23T02:17:10;4.85;;;1.13;;
67828;SDS011;54626;45.436;10.942;2023-03-23T02:20:06;3.78;;;2.75;;
67828;SDS011;54626;45.436;10.942;2023-03-23T02:28:26;3.38;;;2.80;;
67828;SDS011;54626;45.436;10.942;2023-03-23T02:34:00;3.70;;;2.63;;
67828;SDS011;54626;45.436;10.942;2023-03-23T02:41:40;3.33;;;2.42;;
67828;SDS011;54626;45.436;10.942;2023-03-23T02:44:10;15.88;;;2.38;;
67828;SDS011;54626;45.436;10.942;2023-03-23T02:46:39;4.43;;;2.92;;
67828;SDS011;54626;45.436;10.942;2023-03-23T02:49:05;8.77;;;2.47;;
67828;SDS011;54626;45.436;10.942;2023-03-23T02:51:33;2.15;;;1.77;;
67828;SDS011;54626;45.436;10.942;2023-03-23T02:54:00;7.07;;;3.95;;
67828;SDS011;54626;45.436;10.942;2023-03-23T02:56:28;3.85;;;2.50;;
67828;SDS011;54626;45.436;10.942;2023-03-23T03:03:55;3.22;;;2.08;;
67828;SDS011;54626;45.436;10.942;2023-03-23T03:09:48;4.65;;;3.08;;
67828;SDS011;54626;45.436;10.942;2023-03-23T03:12:24;6.43;;;1.60;;
67828;SDS011;54626;45.436;10.942;2023-03-23T03:17:58;2.50;;;2.25;;
67828;SDS011;54626;45.436;10.942;2023-03-23T03:20:32;3.10;;;2.17;;
67828;SDS011;54626;45.436;10.942;2023-03-23T03:23:02;8.10;;;3.67;;
67828;SDS011;54626;45.436;10.942;2023-03-23T03:25:27;6.45;;;2.72;;
67828;SDS011;54626;45.436;10.942;2023-03-23T03:27:53;5.53;;;2.05;;
67828;SDS011;54626;45.436;10.942;2023-03-23T03:30:21;2.60;;;2.05;;
67828;SDS011;54626;45.436;10.942;2023-03-23T03:32:51;3.47;;;2.03;;
67828;SDS011;54626;45.436;10.942;2023-03-23T03:35:19;2.78;;;2.10;;
67828;SDS011;54626;45.436;10.942;2023-03-23T03:37:47;3.28;;;2.22;;
67828;SDS011;54626;45.436;10.942;2023-03-23T03:40:14;5.13;;;2.20;;
67828;SDS011;54626;45.436;10.942;2023-03-23T03:42:43;3.97;;;2.20;;
67828;SDS011;54626;45.436;10.942;2023-03-23T03:45:10;1.63;;;1.52;;
67828;SDS011;54626;45.436;10.942;2023-03-23T03:47:38;5.05;;;3.50;;
67828;SDS011;54626;45.436;10.942;2023-03-23T03:50:03;3.30;;;2.30;;
67828;SDS011;54626;45.436;10.942;2023-03-23T03:52:29;2.70;;;2.28;;
67828;SDS011;54626;45.436;10.942;2023-03-23T03:54:55;8.35;;;4.20;;
67828;SDS011;54626;45.436;10.942;2023-03-23T03:57:21;7.20;;;2.53;;
67828;SDS011;54626;45.436;10.942;2023-03-23T03:59:47;5.25;;;2.38;;
67828;SDS011;54626;45.436;10.942;2023-03-23T04:02:13;17.15;;;3.83;;
67828;SDS011;54626;45.436;10.942;2023-03-23T04:04:41;2.72;;;2.53;;
67828;SDS011;54626;45.436;10.942;2023-03-23T04:09:36;1.80;;;1.63;;
67828;SDS011;54626;45.436;10.942;2023-03-23T04:12:03;2.53;;;2.33;;
67828;SDS011;54626;45.436;10.942;2023-03-23T04:14:29;3.38;;;2.50;;
67828;SDS011;54626;45.436;10.942;2023-03-23T04:16:54;2.72;;;2.00;;
67828;SDS011;54626;45.436;10.942;2023-03-23T04:19:22;3.10;;;2.80;;
67828;SDS011;54626;45.436;10.942;2023-03-23T04:21:48;3.75;;;1.98;;
67828;SDS011;54626;45.436;10.942;2023-03-23T04:24:14;3.80;;;3.03;;
67828;SDS011;54626;45.436;10.942;2023-03-23T04:26:40;4.85;;;4.10;;
67828;SDS011;54626;45.436;10.942;2023-03-23T04:29:07;5.43;;;3.85;;
67828;SDS011;54626;45.436;10.942;2023-03-23T04:31:35;11.90;;;5.57;;
67828;SDS011;54626;45.436;10.942;2023-03-23T04:34:01;2.95;;;2.53;;
67828;SDS011;54626;45.436;10.942;2023-03-23T04:36:27;7.82;;;3.00;;
67828;SDS011;54626;45.436;10.942;2023-03-23T04:38:56;2.35;;;2.15;;
67828;SDS011;54626;45.436;10.942;2023-03-23T04:41:22;3.00;;;2.20;;
67828;SDS011;54626;45.436;10.942;2023-03-23T04:43:49;3.88;;;1.33;;
67828;SDS011;54626;45.436;10.942;2023-03-23T04:46:17;7.93;;;3.28;;
67828;SDS011;54626;45.436;10.942;2023-03-23T04:48:44;2.70;;;2.13;;
67828;SDS011;54626;45.436;10.942;2023-03-23T04:51:13;3.97;;;3.60;;
67828;SDS011;54626;45.436;10.942;2023-03-23T04:53:39;1.80;;;1.30;;
67828;SDS011;54626;45.436;10.942;2023-03-23T04:56:06;5.43;;;3.50;;
67828;SDS011;54626;45.436;10.942;2023-03-23T04:58:31;4.65;;;2.92;;
67828;SDS011;54626;45.436;10.942;2023-03-23T05:00:59;6.68;;;2.50;;
67828;SDS011;54626;45.436;10.942;2023-03-23T05:03:25;4.70;;;4.10;;
67828;SDS011;54626;45.436;10.942;2023-03-23T05:05:52;2.50;;;2.03;;
67828;SDS011;54626;45.436;10.942;2023-03-23T05:10:51;6.55;;;3.67;;
67828;SDS011;54626;45.436;10.942;2023-03-23T05:13:18;2.03;;;1.73;;
67828;SDS011;54626;45.436;10.942;2023-03-23T05:15:44;7.55;;;4.18;;
67828;SDS011;54626;45.436;10.942;2023-03-23T05:18:10;10.77;;;4.25;;
67828;SDS011;54626;45.436;10.942;2023-03-23T05:20:36;2.83;;;2.05;;
67828;SDS011;54626;45.436;10.942;2023-03-23T05:23:02;2.97;;;2.05;;
67828;SDS011;54626;45.436;10.942;2023-03-23T05:25:27;4.35;;;2.55;;
67828;SDS011;54626;45.436;10.942;2023-03-23T05:27:52;4.20;;;3.80;;
67828;SDS011;54626;45.436;10.942;2023-03-23T05:30:19;5.43;;;2.45;;
67828;SDS011;54626;45.436;10.942;2023-03-23T05:32:46;3.13;;;1.85;;
67828;SDS011;54626;45.436;10.942;2023-03-23T05:35:15;2.80;;;1.80;;
67828;SDS011;54626;45.436;10.942;2023-03-23T05:37:42;8.60;;;2.53;;
67828;SDS011;54626;45.436;10.942;2023-03-23T05:40:08;2.05;;;1.90;;
67828;SDS011;54626;45.436;10.942;2023-03-23T05:42:34;3.90;;;2.35;;
67828;SDS011;54626;45.436;10.942;2023-03-23T05:45:04;5.35;;;2.67;;
67828;SDS011;54626;45.436;10.942;2023-03-23T05:47:30;5.75;;;3.38;;
67828;SDS011;54626;45.436;10.942;2023-03-23T05:49:55;5.45;;;3.80;;
67828;SDS011;54626;45.436;10.942;2023-03-23T05:52:21;8.93;;;2.30;;
67828;SDS011;54626;45.436;10.942;2023-03-23T05:54:49;2.97;;;2.55;;
67828;SDS011;54626;45.436;10.942;2023-03-23T05:57:15;8.77;;;3.72;;
67828;SDS011;54626;45.436;10.942;2023-03-23T05:59:40;4.57;;;2.13;;
67828;SDS011;54626;45.436;10.942;2023-03-23T06:02:06;6.10;;;2.85;;
67828;SDS011;54626;45.436;10.942;2023-03-23T06:04:31;6.50;;;2.67;;
67828;SDS011;54626;45.436;10.942;2023-03-23T06:06:58;9.35;;;3.15;;
67828;SDS011;54626;45.436;10.942;2023-03-23T06:09:27;5.10;;;3.83;;
67828;SDS011;54626;45.436;10.942;2023-03-23T06:11:53;4.05;;;2.03;;
67828;SDS011;54626;45.436;10.942;2023-03-23T06:14:20;4.38;;;3.67;;
67828;SDS011;54626;45.436;10.942;2023-03-23T06:16:47;7.88;;;3.13;;
67828;SDS011;54626;45.436;10.942;2023-03-23T06:19:13;7.65;;;3.95;;
67828;SDS011;54626;45.436;10.942;2023-03-23T06:21:39;13.95;;;5.38;;
67828;SDS011;54626;45.436;10.942;2023-03-23T06:24:05;4.50;;;4.10;;
67828;SDS011;54626;45.436;10.942;2023-03-23T06:26:35;4.28;;;3.05;;
67828;SDS011;54626;45.436;10.942;2023-03-23T06:29:03;3.85;;;2.97;;
67828;SDS011;54626;45.436;10.942;2023-03-23T06:31:36;7.53;;;3.70;;
67828;SDS011;54626;45.436;10.942;2023-03-23T06:34:04;8.43;;;3.30;;
67828;SDS011;54626;45.436;10.942;2023-03-23T06:36:30;9.60;;;3.70;;
67828;SDS011;54626;45.436;10.942;2023-03-23T06:38:56;3.83;;;3.13;;
67828;SDS011;54626;45.436;10.942;2023-03-23T06:41:22;4.95;;;4.03;;
67828;SDS011;54626;45.436;10.942;2023-03-23T06:43:47;5.32;;;3.38;;
67828;SDS011;54626;45.436;10.942;2023-03-23T06:46:13;5.95;;;5.18;;
67828;SDS011;54626;45.436;10.942;2023-03-23T06:48:39;3.65;;;3.10;;
67828;SDS011;54626;45.436;10.942;2023-03-23T06:51:04;6.93;;;2.90;;
67828;SDS011;54626;45.436;10.942;2023-03-23T06:53:31;10.60;;;3.50;;
67828;SDS011;54626;45.436;10.942;2023-03-23T06:55:56;3.47;;;2.53;;
67828;SDS011;54626;45.436;10.942;2023-03-23T06:58:24;4.80;;;2.63;;
67828;SDS011;54626;45.436;10.942;2023-03-23T07:00:54;7.03;;;2.55;;
67828;SDS011;54626;45.436;10.942;2023-03-23T07:03:22;4.70;;;4.22;;
67828;SDS011;54626;45.436;10.942;2023-03-23T07:05:48;10.30;;;3.88;;
67828;SDS011;54626;45.436;10.942;2023-03-23T07:08:14;6.13;;;3.85;;
67828;SDS011;54626;45.436;10.942;2023-03-23T07:10:39;7.68;;;3.80;;
67828;SDS011;54626;45.436;10.942;2023-03-23T07:13:04;9.75;;;5.07;;
67828;SDS011;54626;45.436;10.942;2023-03-23T07:15:30;5.88;;;2.63;;
67828;SDS011;54626;45.436;10.942;2023-03-23T07:17:56;4.97;;;2.72;;
67828;SDS011;54626;45.436;10.942;2023-03-23T07:20:22;8.13;;;3.92;;
67828;SDS011;54626;45.436;10.942;2023-03-23T07:22:47;9.00;;;2.05;;
67828;SDS011;54626;45.436;10.942;2023-03-23T07:25:13;22.88;;;4.45;;
67828;SDS011;54626;45.436;10.942;2023-03-23T07:27:40;5.78;;;3.08;;
67828;SDS011;54626;45.436;10.942;2023-03-23T07:30:06;2.85;;;2.28;;
67828;SDS011;54626;45.436;10.942;2023-03-23T07:32:32;3.00;;;2.80;;
67828;SDS011;54626;45.436;10.942;2023-03-23T07:34:58;10.48;;;3.60;;
67828;SDS011;54626;45.436;10.942;2023-03-23T07:37:23;6.82;;;3.13;;
67828;SDS011;54626;45.436;10.942;2023-03-23T07:39:49;3.10;;;2.80;;
67828;SDS011;54626;45.436;10.942;2023-03-23T07:42:14;6.35;;;2.42;;
67828;SDS011;54626;45.436;10.942;2023-03-23T07:44:40;7.95;;;4.15;;
67828;SDS011;54626;45.436;10.942;2023-03-23T07:47:05;3.15;;;2.88;;
67828;SDS011;54626;45.436;10.942;2023-03-23T07:49:31;3.28;;;2.95;;
67828;SDS011;54626;45.436;10.942;2023-03-23T07:51:57;3.58;;;2.92;;
67828;SDS011;54626;45.436;10.942;2023-03-23T07:54:23;9.85;;;3.03;;
67828;SDS011;54626;45.436;10.942;2023-03-23T07:56:49;13.52;;;5.63;;
67828;SDS011;54626;45.436;10.942;2023-03-23T07:59:14;8.38;;;4.70;;
67828;SDS011;54626;45.436;10.942;2023-03-23T08:01:40;4.95;;;3.65;;
67828;SDS011;54626;45.436;10.942;2023-03-23T08:04:06;7.72;;;3.22;;
67828;SDS011;54626;45.436;10.942;2023-03-23T08:06:32;12.63;;;4.82;;
67828;SDS011;54626;45.436;10.942;2023-03-23T08:08:59;14.60;;;4.57;;
67828;SDS011;54626;45.436;10.942;2023-03-23T08:11:25;8.30;;;4.03;;
67828;SDS011;54626;45.436;10.942;2023-03-23T08:13:51;9.25;;;4.88;;
67828;SDS011;54626;45.436;10.942;2023-03-23T08:16:18;7.05;;;4.25;;
67828;SDS011;54626;45.436;10.942;2023-03-23T08:18:45;8.00;;;4.75;;
67828;SDS011;54626;45.436;10.942;2023-03-23T08:21:11;7.93;;;3.92;;
67828;SDS011;54626;45.436;10.942;2023-03-23T08:23:38;6.63;;;5.18;;
67828;SDS011;54626;45.436;10.942;2023-03-23T08:26:06;5.57;;;3.17;;
67828;SDS011;54626;45.436;10.942;2023-03-23T08:28:35;4.70;;;2.90;;
67828;SDS011;54626;45.436;10.942;2023-03-23T08:31:08;9.98;;;3.70;;
67828;SDS011;54626;45.436;10.942;2023-03-23T08:33:36;13.23;;;6.22;;
67828;SDS011;54626;45.436;10.942;2023-03-23T08:36:02;13.65;;;5.15;;
67828;SDS011;54626;45.436;10.942;2023-03-23T08:40:58;4.97;;;2.95;;
67828;SDS011;54626;45.436;10.942;2023-03-23T08:43:25;10.30;;;3.22;;
67828;SDS011;54626;45.436;10.942;2023-03-23T08:45:52;18.33;;;5.38;;
67828;SDS011;54626;45.436;10.942;2023-03-23T08:48:18;6.82;;;4.15;;
67828;SDS011;54626;45.436;10.942;2023-03-23T08:50:44;4.70;;;3.28;;
67828;SDS011;54626;45.436;10.942;2023-03-23T08:53:12;6.85;;;2.83;;
67828;SDS011;54626;45.436;10.942;2023-03-23T08:55:38;15.43;;;4.93;;
67828;SDS011;54626;45.436;10.942;2023-03-23T08:58:05;7.07;;;3.72;;
67828;SDS011;54626;45.436;10.942;2023-03-23T09:02:57;3.65;;;2.75;;
67828;SDS011;54626;45.436;10.942;2023-03-23T09:05:23;10.13;;;5.13;;
67828;SDS011;54626;45.436;10.942;2023-03-23T09:07:51;8.48;;;3.20;;
67828;SDS011;54626;45.436;10.942;2023-03-23T09:10:18;5.97;;;3.53;;
67828;SDS011;54626;45.436;10.942;2023-03-23T09:12:47;8.00;;;4.13;;
67828;SDS011;54626;45.436;10.942;2023-03-23T09:15:13;6.78;;;5.30;;
67828;SDS011;54626;45.436;10.942;2023-03-23T09:17:41;9.77;;;4.53;;
67828;SDS011;54626;45.436;10.942;2023-03-23T09:20:09;6.18;;;5.03;;
67828;SDS011;54626;45.436;10.942;2023-03-23T09:22:40;6.15;;;3.83;;
67828;SDS011;54626;45.436;10.942;2023-03-23T09:25:07;11.50;;;4.45;;
67828;SDS011;54626;45.436;10.942;2023-03-23T09:27:34;7.25;;;3.25;;
67828;SDS011;54626;45.436;10.942;2023-03-23T09:30:03;6.75;;;4.95;;
67828;SDS011;54626;45.436;10.942;2023-03-23T09:32:32;6.18;;;4.13;;
67828;SDS011;54626;45.436;10.942;2023-03-23T09:34:58;5.18;;;4.03;;
67828;SDS011;54626;45.436;10.942;2023-03-23T09:37:24;8.65;;;3.95;;
67828;SDS011;54626;45.436;10.942;2023-03-23T09:39:49;7.22;;;3.63;;
67828;SDS011;54626;45.436;10.942;2023-03-23T09:47:16;10.48;;;4.53;;
67828;SDS011;54626;45.436;10.942;2023-03-23T09:49:59;8.40;;;3.67;;
67828;SDS011;54626;45.436;10.942;2023-03-23T09:52:48;7.22;;;3.55;;
67828;SDS011;54626;45.436;10.942;2023-03-23T09:55:21;9.20;;;3.25;;
67828;SDS011;54626;45.436;10.942;2023-03-23T10:00:36;9.15;;;3.50;;
67828;SDS011;54626;45.436;10.942;2023-03-23T10:03:05;6.93;;;3.40;;
67828;SDS011;54626;45.436;10.942;2023-03-23T10:05:49;7.88;;;3.97;;
67828;SDS011;54626;45.436;10.942;2023-03-23T10:08:18;8.13;;;4.93;;
67828;SDS011;54626;45.436;10.942;2023-03-23T10:11:10;8.43;;;4.00;;
67828;SDS011;54626;45.436;10.942;2023-03-23T10:16:26;7.57;;;4.60;;
67828;SDS011;54626;45.436;10.942;2023-03-23T10:19:17;8.95;;;4.07;;
67828;SDS011;54626;45.436;10.942;2023-03-23T10:21:50;7.57;;;3.17;;
67828;SDS011;54626;45.436;10.942;2023-03-23T10:24:21;9.75;;;4.57;;
67828;SDS011;54626;45.436;10.942;2023-03-23T10:29:35;12.95;;;4.25;;
67828;SDS011;54626;45.436;10.942;2023-03-23T10:32:14;9.68;;;5.43;;
67828;SDS011;54626;45.436;10.942;2023-03-23T10:34:49;13.35;;;4.53;;
67828;SDS011;54626;45.436;10.942;2023-03-23T10:37:25;7.57;;;4.68;;
67828;SDS011;54626;45.436;10.942;2023-03-23T10:39:57;9.15;;;3.05;;
67828;SDS011;54626;45.436;10.942;2023-03-23T10:44:58;5.55;;;3.33;;
67828;SDS011;54626;45.436;10.942;2023-03-23T10:47:26;10.07;;;5.45;;
67828;SDS011;54626;45.436;10.942;2023-03-23T10:52:33;8.05;;;5.25;;
67828;SDS011;54626;45.436;10.942;2023-03-23T10:57:39;17.92;;;4.85;;
67828;SDS011;54626;45.436;10.942;2023-03-23T11:00:23;14.75;;;5.22;;
67828;SDS011;54626;45.436;10.942;2023-03-23T11:03:05;11.77;;;4.75;;
67828;SDS011;54626;45.436;10.942;2023-03-23T11:05:56;5.32;;;3.65;;
67828;SDS011;54626;45.436;10.942;2023-03-23T11:08:30;7.28;;;4.47;;
67828;SDS011;54626;45.436;10.942;2023-03-23T11:11:08;9.88;;;4.22;;
67828;SDS011;54626;45.436;10.942;2023-03-23T11:13:37;4.57;;;3.63;;
67828;SDS011;54626;45.436;10.942;2023-03-23T11:16:09;11.52;;;5.35;;
67828;SDS011;54626;45.436;10.942;2023-03-23T11:21:02;9.75;;;4.60;;
67828;SDS011;54626;45.436;10.942;2023-03-23T11:23:34;9.95;;;5.32;;
67828;SDS011;54626;45.436;10.942;2023-03-23T11:28:51;10.70;;;5.55;;
67828;SDS011;54626;45.436;10.942;2023-03-23T11:31:23;12.55;;;6.10;;
67828;SDS011;54626;45.436;10.942;2023-03-23T11:33:57;9.18;;;5.85;;
67828;SDS011;54626;45.436;10.942;2023-03-23T11:36:42;7.85;;;5.00;;
67828;SDS011;54626;45.436;10.942;2023-03-23T11:39:20;10.90;;;5.00;;
67828;SDS011;54626;45.436;10.942;2023-03-23T11:41:48;18.80;;;7.90;;
67828;SDS011;54626;45.436;10.942;2023-03-23T11:44:13;14.18;;;5.88;;
67828;SDS011;54626;45.436;10.942;2023-03-23T11:46:48;15.18;;;6.00;;
67828;SDS011;54626;45.436;10.942;2023-03-23T11:52:29;10.65;;;5.35;;
67828;SDS011;54626;45.436;10.942;2023-03-23T11:55:13;13.73;;;5.18;;
67828;SDS011;54626;45.436;10.942;2023-03-23T11:57:42;10.07;;;4.82;;
67828;SDS011;54626;45.436;10.942;2023-03-23T12:00:15;11.55;;;5.30;;
67828;SDS011;54626;45.436;10.942;2023-03-23T12:08:49;6.25;;;4.40;;
67828;SDS011;54626;45.436;10.942;2023-03-23T12:14:03;10.40;;;5.10;;
67828;SDS011;54626;45.436;10.942;2023-03-23T12:20:08;16.45;;;6.15;;
67828;SDS011;54626;45.436;10.942;2023-03-23T12:22:29;10.68;;;3.88;;
67828;SDS011;54626;45.436;10.942;2023-03-23T12:31:03;7.22;;;4.18;;
67828;SDS011;54626;45.436;10.942;2023-03-23T12:36:59;9.63;;;4.93;;
67828;SDS011;54626;45.436;10.942;2023-03-23T12:42:37;6.40;;;3.45;;
67828;SDS011;54626;45.436;10.942;2023-03-23T12:50:19;15.15;;;6.60;;
67828;SDS011;54626;45.436;10.942;2023-03-23T12:52:54;15.57;;;6.40;;
67828;SDS011;54626;45.436;10.942;2023-03-23T13:03:30;11.93;;;4.53;;
67828;SDS011;54626;45.436;10.942;2023-03-23T13:08:36;8.90;;;5.95;;
67828;SDS011;54626;45.436;10.942;2023-03-23T13:11:14;7.32;;;4.72;;
67828;SDS011;54626;45.436;10.942;2023-03-23T13:14:03;5.70;;;3.40;;
67828;SDS011;54626;45.436;10.942;2023-03-23T13:16:55;11.27;;;4.75;;
67828;SDS011;54626;45.436;10.942;2023-03-23T13:19:31;9.32;;;4.55;;
67828;SDS011;54626;45.436;10.942;2023-03-23T13:22:15;9.82;;;4.75;;
67828;SDS011;54626;45.436;10.942;2023-03-23T13:25:01;12.43;;;4.88;;
67828;SDS011;54626;45.436;10.942;2023-03-23T13:27:33;9.60;;;4.50;;
67828;SDS011;54626;45.436;10.942;2023-03-23T13:29:59;12.90;;;5.22;;
67828;SDS011;54626;45.436;10.942;2023-03-23T13:32:33;8.68;;;3.72;;
67828;SDS011;54626;45.436;10.942;2023-03-23T13:35:05;14.20;;;6.97;;
67828;SDS011;54626;45.436;10.942;2023-03-23T13:37:41;10.35;;;5.90;;
67828;SDS011;54626;45.436;10.942;2023-03-23T13:42:46;8.38;;;5.53;;
67828;SDS011;54626;45.436;10.942;2023-03-23T13:45:21;13.85;;;5.43;;
67828;SDS011;54626;45.436;10.942;2023-03-23T13:48:17;13.32;;;5.90;;
67828;SDS011;54626;45.436;10.942;2023-03-23T13:53:25;11.52;;;5.10;;
67828;SDS011;54626;45.436;10.942;2023-03-23T13:56:05;11.07;;;5.15;;
67828;SDS011;54626;45.436;10.942;2023-03-23T13:58:45;11.95;;;6.13;;
67828;SDS011;54626;45.436;10.942;2023-03-23T14:01:17;9.90;;;4.65;;
67828;SDS011;54626;45.436;10.942;2023-03-23T14:03:49;10.65;;;4.15;;
67828;SDS011;54626;45.436;10.942;2023-03-23T14:06:20;7.95;;;3.25;;
67828;SDS011;54626;45.436;10.942;2023-03-23T14:08:50;13.20;;;4.47;;
67828;SDS011;54626;45.436;10.942;2023-03-23T14:11:22;10.75;;;4.88;;
67828;SDS011;54626;45.436;10.942;2023-03-23T14:16:20;7.50;;;4.15;;
67828;SDS011;54626;45.436;10.942;2023-03-23T14:18:54;13.52;;;5.00;;
67828;SDS011;54626;45.436;10.942;2023-03-23T14:21:35;9.82;;;3.50;;
67828;SDS011;54626;45.436;10.942;2023-03-23T14:24:12;10.05;;;4.72;;
67828;SDS011;54626;45.436;10.942;2023-03-23T14:26:41;10.32;;;6.18;;
67828;SDS011;54626;45.436;10.942;2023-03-23T14:29:13;8.77;;;5.18;;
67828;SDS011;54626;45.436;10.942;2023-03-23T14:31:38;14.98;;;5.18;;
67828;SDS011;54626;45.436;10.942;2023-03-23T14:34:18;10.10;;;5.50;;
67828;SDS011;54626;45.436;10.942;2023-03-23T14:36:45;16.20;;;4.90;;
67828;SDS011;54626;45.436;10.942;2023-03-23T14:41:36;8.30;;;3.60;;
67828;SDS011;54626;45.436;10.942;2023-03-23T14:44:03;10.13;;;4.85;;
67828;SDS011;54626;45.436;10.942;2023-03-23T14:46:33;10.82;;;5.00;;
67828;SDS011;54626;45.436;10.942;2023-03-23T14:49:00;8.32;;;3.50;;
67828;SDS011;54626;45.436;10.942;2023-03-23T14:51:28;9.15;;;3.90;;
67828;SDS011;54626;45.436;10.942;2023-03-23T14:53:54;7.70;;;3.20;;
67828;SDS011;54626;45.436;10.942;2023-03-23T14:56:20;7.28;;;3.92;;
67828;SDS011;54626;45.436;10.942;2023-03-23T14:58:49;5.20;;;3.13;;
67828;SDS011;54626;45.436;10.942;2023-03-23T15:01:19;8.38;;;3.47;;
67828;SDS011;54626;45.436;10.942;2023-03-23T15:03:52;5.80;;;3.38;;
67828;SDS011;54626;45.436;10.942;2023-03-23T15:06:21;8.88;;;3.30;;
67828;SDS011;54626;45.436;10.942;2023-03-23T15:08:50;6.10;;;2.75;;
67828;SDS011;54626;45.436;10.942;2023-03-23T15:11:22;6.18;;;3.10;;
67828;SDS011;54626;45.436;10.942;2023-03-23T15:13:56;7.30;;;3.50;;
67828;SDS011;54626;45.436;10.942;2023-03-23T15:16:28;5.32;;;2.88;;
67828;SDS011;54626;45.436;10.942;2023-03-23T15:18:56;5.38;;;3.45;;
67828;SDS011;54626;45.436;10.942;2023-03-23T15:21:29;10.48;;;2.92;;
67828;SDS011;54626;45.436;10.942;2023-03-23T15:24:00;6.45;;;2.70;;
67828;SDS011;54626;45.436;10.942;2023-03-23T15:26:34;7.43;;;2.88;;
67828;SDS011;54626;45.436;10.942;2023-03-23T15:31:33;8.07;;;2.47;;
67828;SDS011;54626;45.436;10.942;2023-03-23T15:34:03;5.20;;;1.77;;
67828;SDS011;54626;45.436;10.942;2023-03-23T15:36:34;6.65;;;3.03;;
67828;SDS011;54626;45.436;10.942;2023-03-23T15:39:00;5.57;;;2.42;;
67828;SDS011;54626;45.436;10.942;2023-03-23T15:41:28;4.63;;;1.90;;
67828;SDS011;54626;45.436;10.942;2023-03-23T15:43:58;6.82;;;1.70;;
67828;SDS011;54626;45.436;10.942;2023-03-23T15:46:35;8.05;;;3.03;;
67828;SDS011;54626;45.436;10.942;2023-03-23T15:51:27;2.63;;;1.42;;
67828;SDS011;54626;45.436;10.942;2023-03-23T15:53:55;4.07;;;2.80;;
67828;SDS011;54626;45.436;10.942;2023-03-23T15:56:22;7.32;;;3.28;;
67828;SDS011;54626;45.436;10.942;2023-03-23T15:58:48;5.85;;;1.48;;
67828;SDS011;54626;45.436;10.942;2023-03-23T16:01:15;6.88;;;2.78;;
67828;SDS011;54626;45.436;10.942;2023-03-23T16:04:04;5.13;;;2.47;;
67828;SDS011;54626;45.436;10.942;2023-03-23T16:06:34;2.72;;;1.95;;
67828;SDS011;54626;45.436;10.942;2023-03-23T16:09:02;5.80;;;2.22;;
67828;SDS011;54626;45.436;10.942;2023-03-23T16:11:29;4.53;;;1.90;;
67828;SDS011;54626;45.436;10.942;2023-03-23T16:13:57;4.20;;;1.15;;
67828;SDS011;54626;45.436;10.942;2023-03-23T16:16:33;3.63;;;1.67;;
67828;SDS011;54626;45.436;10.942;2023-03-23T16:19:02;3.17;;;1.85;;
67828;SDS011;54626;45.436;10.942;2023-03-23T16:21:29;5.68;;;2.13;;
67828;SDS011;54626;45.436;10.942;2023-03-23T16:23:56;2.78;;;1.90;;
67828;SDS011;54626;45.436;10.942;2023-03-23T16:26:24;5.43;;;2.30;;
67828;SDS011;54626;45.436;10.942;2023-03-23T16:28:50;5.90;;;1.42;;
67828;SDS011;54626;45.436;10.942;2023-03-23T16:31:25;2.55;;;0.95;;
67828;SDS011;54626;45.436;10.942;2023-03-23T16:33:51;5.15;;;2.03;;
67828;SDS011;54626;45.436;10.942;2023-03-23T16:36:18;4.88;;;1.52;;
67828;SDS011;54626;45.436;10.942;2023-03-23T16:38:44;5.30;;;2.53;;
67828;SDS011;54626;45.436;10.942;2023-03-23T16:41:15;2.35;;;1.15;;
67828;SDS011;54626;45.436;10.942;2023-03-23T16:43:42;2.10;;;1.15;;
67828;SDS011;54626;45.436;10.942;2023-03-23T16:46:08;2.13;;;1.60;;
67828;SDS011;54626;45.436;10.942;2023-03-23T16:48:37;2.10;;;1.35;;
67828;SDS011;54626;45.436;10.942;2023-03-23T16:51:03;3.15;;;1.95;;
67828;SDS011;54626;45.436;10.942;2023-03-23T16:53:30;3.03;;;1.27;;